createdAt,value
2022-09-14T00:03:11.986Z,97873.67
2022-09-14T00:08:52.716Z,97866.77
2022-09-14T00:14:20.572Z,97874.91
2022-09-14T00:19:37.335Z,97870.84
2022-09-14T00:25:04.808Z,97861.28
2022-09-14T00:30:45.075Z,97860.55
2022-09-14T00:36:35.339Z,97859.23
2022-09-14T00:42:10.189Z,97855.02
2022-09-14T00:47:24.163Z,97851.89
2022-09-14T00:53:23.496Z,97846.38
2022-09-14T00:59:45.543Z,97843.34
2022-09-14T01:05:57.475Z,97834.86
2022-09-14T01:11:58.235Z,97832.53
2022-09-14T01:18:31.070Z,97832.77
2022-09-14T01:25:04.453Z,97823.04
2022-09-14T01:30:32.720Z,97825.40
2022-09-14T01:36:35.087Z,97819.20
2022-09-14T01:42:12.742Z,97810.08
2022-09-14T01:48:06.692Z,97806.52
2022-09-14T01:54:17.936Z,97811.64
2022-09-14T01:59:43.352Z,97814.41
2022-09-14T02:06:02.152Z,97809.25
2022-09-14T02:11:31.723Z,97805.27
2022-09-14T02:17:18.592Z,97806.34
2022-09-14T02:22:46.512Z,97795.94
2022-09-14T02:29:25.772Z,97783.25
2022-09-14T02:36:02.352Z,97768.42
2022-09-14T02:43:06.401Z,97759.79
2022-09-14T02:49:37.060Z,97761.29
2022-09-14T02:55:50.845Z,97755.16
2022-09-14T03:01:55.900Z,97764.45
2022-09-14T03:07:56.893Z,97758.63
2022-09-14T03:13:51.936Z,97756.02
2022-09-14T03:20:15.477Z,97763.52
2022-09-14T03:26:53.111Z,97766.84
2022-09-14T03:33:15.434Z,97763.83
2022-09-14T03:39:23.549Z,97758.41
2022-09-14T03:46:05.951Z,97764.16
2022-09-14T03:52:04.660Z,97769.33
2022-09-14T03:58:46.536Z,97763.83
2022-09-14T04:04:55.359Z,97763.11
2022-09-14T04:10:32.602Z,97762.57
2022-09-14T04:16:13.932Z,97761.02
2022-09-14T04:22:38.050Z,97756.04
2022-09-14T04:28:56.923Z,97750.21
2022-09-14T04:35:20.992Z,97744.98
2022-09-14T04:40:31.888Z,97742.63
2022-09-14T04:46:05.348Z,97749.65
2022-09-14T04:51:26.270Z,97751.57
2022-09-14T04:56:55.202Z,97744.78
2022-09-14T05:02:27.545Z,97748.92
2022-09-14T05:08:14.232Z,97751.73
2022-09-14T05:13:51.689Z,97762.23
2022-09-14T05:19:43.556Z,97760.53
2022-09-14T05:24:45.751Z,97760.67
2022-09-14T05:29:59.206Z,97764.27
2022-09-14T05:35:17.175Z,97762.31
2022-09-14T05:40:54.121Z,97769.88
2022-09-14T05:46:36.207Z,97771.84
2022-09-14T05:52:32.194Z,97766.55
2022-09-14T05:58:06.023Z,97764.80
2022-09-14T06:03:33.746Z,97767.59
2022-09-14T06:09:16.688Z,97767.06
2022-09-14T06:14:21.311Z,97770.41
2022-09-14T06:19:46.539Z,97776.23
2022-09-14T06:24:52.232Z,97779.42
2022-09-14T06:30:05.695Z,97787.16
2022-09-14T06:36:14.399Z,97782.78
2022-09-14T06:41:57.030Z,97777.14
2022-09-14T06:47:10.669Z,97784.86
2022-09-14T06:52:57.336Z,97781.97
2022-09-14T06:58:56.038Z,97772.88
2022-09-14T07:04:27.407Z,97767.38
2022-09-14T07:09:32.228Z,97770.80
2022-09-14T07:14:47.872Z,97772.18
2022-09-14T07:20:25.614Z,97769.16
2022-09-14T07:26:25.048Z,97767.67
2022-09-14T07:32:31.217Z,97781.03
2022-09-14T07:37:57.507Z,97781.45
2022-09-14T07:43:24.459Z,97790.07
2022-09-14T07:49:33.851Z,97782.56
2022-09-14T07:55:19.990Z,97779.85
2022-09-14T08:01:16.933Z,97778.28
2022-09-14T08:07:22.018Z,97776.30
2022-09-14T08:12:41.411Z,97777.30
2022-09-14T08:18:01.110Z,97780.30
2022-09-14T08:23:36.255Z,97776.96
2022-09-14T08:28:52.760Z,97781.64
2022-09-14T08:34:05.440Z,97781.66
2022-09-14T08:39:57.307Z,97779.85
2022-09-14T08:45:24.238Z,97781.52
2022-09-14T08:50:43.201Z,97776.79
2022-09-14T08:56:18.640Z,97780.33
2022-09-14T09:01:45.391Z,97780.76
2022-09-14T09:07:39.003Z,97781.50
2022-09-14T09:13:09.292Z,97782.26
2022-09-14T09:19:00.677Z,97787.19
2022-09-14T09:24:31.076Z,97787.48
2022-09-14T09:29:42.372Z,97777.09
2022-09-14T09:34:55.163Z,97773.05
2022-09-14T09:40:50.287Z,97766.50
2022-09-14T09:46:05.732Z,97761.11
2022-09-14T09:51:23.827Z,97761.28
2022-09-14T09:56:37.673Z,97761.73
2022-09-14T10:01:42.639Z,97760.36
2022-09-14T10:06:54.378Z,97764.07
2022-09-14T10:12:41.808Z,97766.36
2022-09-14T10:18:48.235Z,97758.42
2022-09-14T10:24:21.256Z,97757.42
2022-09-14T10:30:18.930Z,97756.45
2022-09-14T10:36:58.151Z,97754.86
2022-09-14T10:42:51.514Z,97752.50
2022-09-14T10:49:04.498Z,97749.52
2022-09-14T10:55:11.530Z,97747.86
2022-09-14T11:01:06.648Z,97749.02
2022-09-14T11:07:04.529Z,97750.71
2022-09-14T11:13:54.540Z,97743.23
2022-09-14T11:19:35.221Z,97741.76
2022-09-14T11:25:20.538Z,97731.86
2022-09-14T11:30:37.525Z,97734.05
2022-09-14T11:35:55.264Z,97735.44
2022-09-14T11:41:29.908Z,97736.23
2022-09-14T11:47:05.540Z,97739.27
2022-09-14T11:52:29.571Z,97738.27
2022-09-14T11:57:46.180Z,97732.42
2022-09-14T12:03:19.228Z,97727.90
2022-09-14T12:08:48.828Z,97729.61
2022-09-14T12:15:14.057Z,97737.83
2022-09-14T12:21:30.845Z,97732.52
2022-09-14T12:27:48.515Z,97724.16
2022-09-14T12:33:33.912Z,97722.69
2022-09-14T12:39:34.727Z,97712.36
2022-09-14T12:44:47.445Z,97707.50
2022-09-14T12:50:33.188Z,97700.31
2022-09-14T12:55:59.803Z,97693.25
2022-09-14T13:01:49.511Z,97690.19
2022-09-14T13:07:07.120Z,97685.70
2022-09-14T13:12:43.167Z,97682.79
2022-09-14T13:18:16.785Z,97684.27
2022-09-14T13:24:08.409Z,97663.57
2022-09-14T13:29:29.802Z,97655.31
2022-09-14T13:34:40.938Z,97646.77
2022-09-14T13:39:54.814Z,97635.55
2022-09-14T13:44:57.371Z,97640.64
2022-09-14T13:50:03.225Z,97627.69
2022-09-14T13:55:48.806Z,97623.56
2022-09-14T14:00:58.227Z,97612.31
2022-09-14T14:06:51.203Z,97611.17
2022-09-14T14:12:17.375Z,97608.19
2022-09-14T14:17:57.142Z,97601.60
2022-09-14T14:24:11.768Z,97608.08
2022-09-14T14:29:44.104Z,97608.13
2022-09-14T14:35:48.705Z,97608.13
2022-09-14T14:41:23.977Z,97605.15
2022-09-14T14:47:02.151Z,97605.16
2022-09-14T14:52:12.785Z,97603.34
2022-09-14T14:58:41.876Z,97608.33
2022-09-14T15:04:07.207Z,97612.03
2022-09-14T15:10:37.698Z,97609.95
2022-09-14T15:16:42.561Z,97605.27
2022-09-14T15:22:21.689Z,97611.04
2022-09-14T15:28:11.307Z,97602.69
2022-09-14T15:33:58.877Z,97595.90
2022-09-14T15:39:25.948Z,97591.98
2022-09-14T15:44:37.079Z,97594.98
2022-09-14T15:49:43.702Z,97593.79
2022-09-14T15:56:25.883Z,97598.61
2022-09-14T16:02:28.567Z,97591.91
2022-09-14T16:08:13.365Z,97580.53
2022-09-14T16:14:15.789Z,97578.01
2022-09-14T16:19:40.734Z,97569.41
2022-09-14T16:25:06.055Z,97562.93
2022-09-14T16:31:14.151Z,97572.66
2022-09-14T16:36:27.026Z,97580.48
2022-09-14T16:41:58.569Z,97567.86
2022-09-14T16:47:18.050Z,97566.34
2022-09-14T16:52:53.319Z,97559.16
2022-09-14T16:58:44.924Z,97560.17
2022-09-14T17:04:40.073Z,97560.23
2022-09-14T17:10:14.431Z,97553.12
2022-09-14T17:15:38.178Z,97546.76
2022-09-14T17:21:51.688Z,97550.58
2022-09-14T17:28:05.113Z,97552.20
2022-09-14T17:34:18.908Z,97543.38
2022-09-14T17:39:46.927Z,97532.48
2022-09-14T17:45:21.729Z,97527.86
2022-09-14T17:51:12.779Z,97525.45
2022-09-14T17:56:57.464Z,97533.45
2022-09-14T18:02:31.065Z,97535.50
2022-09-14T18:07:55.607Z,97543.54
2022-09-14T18:13:57.290Z,97536.52
2022-09-14T18:19:58.587Z,97521.23
2022-09-14T18:25:55.500Z,97508.17
2022-09-14T18:31:39.377Z,97511.17
2022-09-14T18:37:44.326Z,97505.97
2022-09-14T18:42:48.137Z,97489.38
2022-09-14T18:47:50.221Z,97481.91
2022-09-14T18:53:02.718Z,97486.33
2022-09-14T18:58:10.300Z,97474.33
2022-09-14T19:03:56.194Z,97479.19
2022-09-14T19:09:09.440Z,97481.58
2022-09-14T19:15:12.787Z,97488.13
2022-09-14T19:21:07.442Z,97484.99
2022-09-14T19:26:15.046Z,97478.79
2022-09-14T19:31:36.652Z,97474.02
2022-09-14T19:36:45.305Z,97479.09
2022-09-14T19:42:08.055Z,97482.16
2022-09-14T19:47:29.605Z,97475.95
2022-09-14T19:53:02.572Z,97470.35
2022-09-14T19:58:46.860Z,97465.23
2022-09-14T20:04:05.083Z,97468.33
2022-09-14T20:09:27.923Z,97464.23
2022-09-14T20:14:45.003Z,97468.55
2022-09-14T20:20:15.415Z,97477.13
2022-09-14T20:25:42.041Z,97474.66
2022-09-14T20:30:57.757Z,97470.44
2022-09-14T20:36:45.178Z,97467.48
2022-09-14T20:42:31.098Z,97461.23
2022-09-14T20:48:09.092Z,97447.52
2022-09-14T20:53:48.166Z,97444.58
2022-09-14T20:59:22.846Z,97441.73
2022-09-14T21:04:50.469Z,97423.12
2022-09-14T21:10:40.173Z,97410.23
2022-09-14T21:16:42.484Z,97403.46
2022-09-14T21:22:17.187Z,97387.89
2022-09-14T21:28:20.862Z,97388.39
2022-09-14T21:34:16.028Z,97382.26
2022-09-14T21:40:24.162Z,97385.82
2022-09-14T21:46:37.706Z,97380.30
2022-09-14T21:52:25.996Z,97368.69
2022-09-14T21:57:34.200Z,97356.77
2022-09-14T22:03:18.146Z,97348.30
2022-09-14T22:09:36.734Z,97353.86
2022-09-14T22:15:36.790Z,97346.87
2022-09-14T22:21:55.012Z,97353.38
2022-09-14T22:28:32.539Z,97357.48
2022-09-14T22:34:28.411Z,97363.19
2022-09-14T22:40:36.367Z,97347.52
2022-09-14T22:46:25.587Z,97334.09
2022-09-14T22:52:47.919Z,97330.91
2022-09-14T22:58:14.692Z,97326.62
2022-09-14T23:04:34.644Z,97319.63
2022-09-14T23:10:23.844Z,97296.94
2022-09-14T23:16:50.691Z,97287.14
2022-09-14T23:22:41.036Z,97291.39
2022-09-14T23:28:55.991Z,97289.98
2022-09-14T23:35:37.021Z,97286.80
2022-09-14T23:42:11.663Z,97297.52
2022-09-14T23:47:35.613Z,97289.46
2022-09-14T23:53:06.799Z,97281.67
2022-09-14T23:58:16.069Z,97279.33
